Time;durP1;ratioP1;P1;durP2;ratioP2;P2;SDS_P1;SDS_P2;PMS_P1;PMS_P2;Temp;Humidity;BMP_temperature;BMP_pressure;BME280_temperature;BME280_humidity;BME280_pressure;Samples;Min_cycle;Max_cycle;Signal;HPM_P1;HPM_P2
2023/12/11 00:01:30;;;;;;;;;2.00;2.00;;;;;;;;5095633;27;45929;-84
2023/12/11 00:03:56;;;;;;;;;3.00;3.00;;;;;;;;5094346;27;47570;-82
2023/12/11 00:06:21;;;;;;;;;4.00;3.00;;;;;;;;5094108;27;45550;-83
2023/12/11 00:08:46;;;;;;;;;2.67;2.67;;;;;;;;5094864;27;45378;-83
2023/12/11 00:11:12;;;;;;;;;3.00;2.00;;;;;;;;5095723;27;45997;-85
2023/12/11 00:13:37;;;;;;;;;3.33;3.33;;;;;;;;5095361;27;47325;-83
2023/12/11 00:16:03;;;;;;;;;4.33;2.67;;;;;;;;5095783;27;45323;-84
2023/12/11 00:18:28;;;;;;;;;2.33;2.00;;;;;;;;5080089;27;45620;-82
2023/12/11 00:20:53;;;;;;;;;3.00;3.00;;;;;;;;5078493;28;46929;-83
2023/12/11 00:23:18;;;;;;;;;4.00;2.67;;;;;;;;5080203;27;45348;-83
2023/12/11 00:25:45;;;;;;;;;2.33;2.00;;;;;;;;5084824;27;45409;-83
2023/12/11 00:28:10;;;;;;;;;5.67;4.00;;;;;;;;5061818;28;45259;-83
2023/12/11 00:30:36;;;;;;;;;4.00;4.00;;;;;;;;5077588;28;46058;-81
2023/12/11 00:33:01;;;;;;;;;3.67;3.67;;;;;;;;5077954;28;48152;-82
2023/12/11 00:35:26;;;;;;;;;4.33;3.00;;;;;;;;5079646;28;45230;-81
2023/12/11 00:37:51;;;;;;;;;3.67;2.33;;;;;;;;5079767;28;45567;-83
2023/12/11 00:40:16;;;;;;;;;2.33;2.00;;;;;;;;5078320;28;46363;-82
2023/12/11 00:42:41;;;;;;;;;2.33;2.33;;;;;;;;5061518;28;46591;-83
2023/12/11 00:45:07;;;;;;;;;2.67;2.33;;;;;;;;5078083;28;45409;-83
2023/12/11 00:47:32;;;;;;;;;2.67;2.67;;;;;;;;5079735;28;45343;-82
2023/12/11 00:49:57;;;;;;;;;3.00;3.00;;;;;;;;5077046;28;46290;-83
2023/12/11 00:52:22;;;;;;;;;2.33;2.33;;;;;;;;5079319;28;45521;-83
2023/12/11 00:54:48;;;;;;;;;9.33;5.67;;;;;;;;5078355;28;45314;-84
2023/12/11 00:57:13;;;;;;;;;2.67;2.33;;;;;;;;5079719;28;45349;-83
2023/12/11 00:59:39;;;;;;;;;2.00;2.00;;;;;;;;5095292;27;47204;-83
2023/12/11 01:02:04;;;;;;;;;2.67;2.00;;;;;;;;5095183;27;46943;-84
2023/12/11 01:04:29;;;;;;;;;3.00;2.00;;;;;;;;5095196;27;45800;-83
2023/12/11 01:06:54;;;;;;;;;3.00;3.00;;;;;;;;5095242;27;45346;-83
2023/12/11 01:09:19;;;;;;;;;3.00;3.00;;;;;;;;5079321;27;45446;-85
2023/12/11 01:11:45;;;;;;;;;2.00;2.00;;;;;;;;5094856;27;45352;-82
2023/12/11 01:14:10;;;;;;;;;5.67;3.00;;;;;;;;5094834;27;45322;-82
2023/12/11 01:16:35;;;;;;;;;1.00;1.00;;;;;;;;5095120;27;45243;-83
2023/12/11 01:19:00;;;;;;;;;2.33;2.33;;;;;;;;5095154;27;45452;-84
2023/12/11 01:21:25;;;;;;;;;2.00;2.00;;;;;;;;5094493;27;47282;-82
2023/12/11 01:23:51;;;;;;;;;3.67;3.00;;;;;;;;5079397;27;45217;-83
2023/12/11 01:26:16;;;;;;;;;5.33;4.67;;;;;;;;5079192;27;45172;-82
2023/12/11 01:28:42;;;;;;;;;3.33;2.33;;;;;;;;5079174;27;45247;-83
2023/12/11 01:31:07;;;;;;;;;3.00;3.00;;;;;;;;5079210;27;45321;-84
2023/12/11 01:33:32;;;;;;;;;3.00;3.00;;;;;;;;5079000;27;45228;-81
2023/12/11 01:35:57;;;;;;;;;4.00;4.00;;;;;;;;5094686;27;45250;-83
2023/12/11 01:38:23;;;;;;;;;2.33;2.33;;;;;;;;5094558;27;47055;-82
2023/12/11 01:40:48;;;;;;;;;3.67;3.67;;;;;;;;5094583;27;47431;-82
2023/12/11 01:43:14;;;;;;;;;3.00;3.00;;;;;;;;5094772;27;45348;-84
2023/12/11 01:45:39;;;;;;;;;5.33;5.33;;;;;;;;5077600;28;45371;-82
2023/12/11 01:48:05;;;;;;;;;3.33;3.00;;;;;;;;5087986;27;46205;-81
2023/12/11 01:50:30;;;;;;;;;4.67;3.67;;;;;;;;5056622;28;46979;-83
2023/12/11 01:52:55;;;;;;;;;4.00;3.33;;;;;;;;5060651;28;45341;-85
2023/12/11 01:55:20;;;;;;;;;4.33;3.00;;;;;;;;5062179;28;45666;-83
2023/12/11 01:57:46;;;;;;;;;3.67;3.67;;;;;;;;5061387;28;45375;-83
2023/12/11 02:00:11;;;;;;;;;2.67;2.67;;;;;;;;5077311;27;45447;-82
2023/12/11 02:02:37;;;;;;;;;4.33;3.00;;;;;;;;5061979;28;45312;-84
2023/12/11 02:05:03;;;;;;;;;4.00;3.00;;;;;;;;5077448;28;45287;-81
2023/12/11 02:07:28;;;;;;;;;6.00;6.00;;;;;;;;5061793;28;45431;-82
2023/12/11 02:09:53;;;;;;;;;6.00;5.67;;;;;;;;5061586;28;45998;-83
2023/12/11 02:12:19;;;;;;;;;6.00;4.00;;;;;;;;5061613;28;45320;-83
2023/12/11 02:14:44;;;;;;;;;5.00;4.67;;;;;;;;5077114;28;45300;-84
2023/12/11 02:17:09;;;;;;;;;4.67;4.00;;;;;;;;5061596;28;45369;-84
2023/12/11 02:19:35;;;;;;;;;7.00;4.67;;;;;;;;5076936;28;47112;-83
2023/12/11 02:22:00;;;;;;;;;7.00;6.00;;;;;;;;5076873;28;45310;-84
2023/12/11 02:24:30;;;;;;;;;4.67;3.33;;;;;;;;5077326;28;45401;-83
2023/12/11 02:26:55;;;;;;;;;5.00;3.00;;;;;;;;5061345;28;45279;-83
2023/12/11 02:29:20;;;;;;;;;2.33;2.33;;;;;;;;5060334;28;45389;-83
2023/12/11 02:31:45;;;;;;;;;4.00;1.67;;;;;;;;5061589;28;45403;-83
2023/12/11 02:34:10;;;;;;;;;3.33;2.00;;;;;;;;5060134;28;45245;-80
2023/12/11 02:36:36;;;;;;;;;4.33;3.00;;;;;;;;5061370;28;45319;-83
2023/12/11 02:39:01;;;;;;;;;5.00;2.00;;;;;;;;5061071;28;45482;-84
2023/12/11 02:41:26;;;;;;;;;4.00;4.00;;;;;;;;5059828;28;45833;-82
2023/12/11 02:43:51;;;;;;;;;6.00;5.00;;;;;;;;5061469;28;45267;-84
2023/12/11 02:46:17;;;;;;;;;3.33;3.00;;;;;;;;5059648;28;45977;-82
2023/12/11 02:48:42;;;;;;;;;4.00;3.67;;;;;;;;5062621;28;47362;-82
2023/12/11 02:51:07;;;;;;;;;3.33;3.33;;;;;;;;5079678;28;45438;-80
2023/12/11 02:53:32;;;;;;;;;5.00;3.67;;;;;;;;5080297;28;45385;-83
2023/12/11 02:55:57;;;;;;;;;4.00;2.33;;;;;;;;5081335;28;45378;-83
2023/12/11 02:58:23;;;;;;;;;2.00;2.00;;;;;;;;5075993;28;47453;-83
2023/12/11 03:00:48;;;;;;;;;5.67;4.67;;;;;;;;5081232;27;45357;-83
2023/12/11 03:03:13;;;;;;;;;5.33;3.00;;;;;;;;5095854;27;45370;-83
2023/12/11 03:05:38;;;;;;;;;5.00;4.67;;;;;;;;5096421;27;46158;-83
2023/12/11 03:08:04;;;;;;;;;3.33;2.67;;;;;;;;5096869;27;47156;-83
2023/12/11 03:10:30;;;;;;;;;4.00;3.00;;;;;;;;5096674;27;45303;-83
2023/12/11 03:12:55;;;;;;;;;4.00;3.00;;;;;;;;5081198;27;45274;-83
2023/12/11 03:15:20;;;;;;;;;4.00;2.67;;;;;;;;5080952;27;45463;-82
2023/12/11 03:17:46;;;;;;;;;6.00;4.00;;;;;;;;5080901;28;45492;-83
2023/12/11 03:20:14;;;;;;;;;3.00;2.00;;;;;;;;5080647;27;45393;-83
2023/12/11 03:22:39;;;;;;;;;6.33;5.00;;;;;;;;5096846;27;45294;-84
2023/12/11 03:25:04;;;;;;;;;5.00;3.00;;;;;;;;5082765;27;46148;-82
2023/12/11 03:27:29;;;;;;;;;3.00;3.00;;;;;;;;5079986;28;45602;-83
2023/12/11 03:29:55;;;;;;;;;4.00;4.00;;;;;;;;5077860;28;45829;-83
2023/12/11 03:32:20;;;;;;;;;5.00;3.33;;;;;;;;5078051;28;45336;-83
2023/12/11 03:34:45;;;;;;;;;2.33;2.00;;;;;;;;5079042;28;45929;-83
2023/12/11 03:37:10;;;;;;;;;3.33;3.00;;;;;;;;5078936;28;45567;-83
2023/12/11 03:39:36;;;;;;;;;4.00;4.00;;;;;;;;5080455;28;45319;-81
2023/12/11 03:42:01;;;;;;;;;3.67;3.67;;;;;;;;5079249;28;45410;-82
2023/12/11 03:44:26;;;;;;;;;6.67;4.33;;;;;;;;5079126;28;46221;-83
2023/12/11 03:46:51;;;;;;;;;5.67;3.00;;;;;;;;5062079;28;48323;-82
2023/12/11 03:49:18;;;;;;;;;3.67;3.00;;;;;;;;5079931;28;45370;-83
2023/12/11 03:51:43;;;;;;;;;5.67;3.00;;;;;;;;5080456;28;45387;-83
2023/12/11 03:54:08;;;;;;;;;4.00;4.00;;;;;;;;5079027;28;47027;-83
2023/12/11 03:56:34;;;;;;;;;6.67;4.00;;;;;;;;5061993;28;48225;-82
2023/12/11 03:58:59;;;;;;;;;5.33;3.33;;;;;;;;5061580;28;45406;-83
2023/12/11 04:01:24;;;;;;;;;3.00;3.00;;;;;;;;5078954;28;45425;-82
2023/12/11 04:03:49;;;;;;;;;2.33;2.00;;;;;;;;5078656;28;47489;-83
2023/12/11 04:06:14;;;;;;;;;5.67;5.67;;;;;;;;5060485;28;47261;-83
2023/12/11 04:08:40;;;;;;;;;8.67;5.67;;;;;;;;5080223;28;45281;-82
2023/12/11 04:11:05;;;;;;;;;6.67;3.33;;;;;;;;5080300;28;45273;-83
2023/12/11 04:13:31;;;;;;;;;4.67;3.00;;;;;;;;5078182;28;46109;-83
2023/12/11 04:15:56;;;;;;;;;5.33;3.67;;;;;;;;5078793;28;47172;-83
2023/12/11 04:18:21;;;;;;;;;8.00;5.00;;;;;;;;5078483;28;45338;-83
2023/12/11 04:20:46;;;;;;;;;4.67;3.00;;;;;;;;5078750;28;45316;-83
2023/12/11 04:23:11;;;;;;;;;3.67;3.33;;;;;;;;5080057;28;45299;-83
2023/12/11 04:25:36;;;;;;;;;5.33;4.67;;;;;;;;5078515;28;47920;-82
2023/12/11 04:28:02;;;;;;;;;6.33;4.00;;;;;;;;5079976;28;45298;-83
2023/12/11 04:30:27;;;;;;;;;3.33;2.33;;;;;;;;5079926;28;45168;-84
2023/12/11 04:32:52;;;;;;;;;6.67;5.00;;;;;;;;5079847;28;45449;-83
2023/12/11 04:35:17;;;;;;;;;4.67;4.67;;;;;;;;5079617;28;46385;-84
2023/12/11 04:37:42;;;;;;;;;4.67;4.67;;;;;;;;5078127;28;45901;-82
2023/12/11 04:40:08;;;;;;;;;3.33;3.33;;;;;;;;5078551;28;45271;-82
2023/12/11 04:42:33;;;;;;;;;4.33;4.33;;;;;;;;5079683;28;45757;-82
2023/12/11 04:44:58;;;;;;;;;5.00;3.67;;;;;;;;5061551;28;47302;-82
2023/12/11 04:47:23;;;;;;;;;6.00;5.00;;;;;;;;5079638;28;45360;-83
2023/12/11 04:49:48;;;;;;;;;9.33;4.67;;;;;;;;5061121;28;45319;-83
2023/12/11 04:52:15;;;;;;;;;4.00;2.67;;;;;;;;5079715;28;45371;-84
2023/12/11 04:54:41;;;;;;;;;8.00;4.00;;;;;;;;5079501;28;45330;-83
2023/12/11 04:57:06;;;;;;;;;3.67;3.67;;;;;;;;5080358;27;45357;-83
2023/12/11 04:59:31;;;;;;;;;2.33;2.33;;;;;;;;5079824;27;45213;-83
2023/12/11 05:01:56;;;;;;;;;4.33;3.67;;;;;;;;5095137;27;45508;-84
2023/12/11 05:04:21;;;;;;;;;4.67;4.00;;;;;;;;5079040;27;45483;-84
2023/12/11 05:06:46;;;;;;;;;5.33;3.67;;;;;;;;5078847;27;45243;-83
2023/12/11 05:09:12;;;;;;;;;2.33;2.00;;;;;;;;5095066;27;45398;-84
2023/12/11 05:11:37;;;;;;;;;6.33;5.00;;;;;;;;5078272;27;45365;-85
2023/12/11 05:14:02;;;;;;;;;5.67;5.00;;;;;;;;5094717;27;48219;-83
2023/12/11 05:16:27;;;;;;;;;3.67;3.33;;;;;;;;5079458;28;45423;-83
2023/12/11 05:18:52;;;;;;;;;6.33;5.00;;;;;;;;5079378;27;45291;-82
2023/12/11 05:21:17;;;;;;;;;4.67;4.00;;;;;;;;5094676;27;46469;-83
2023/12/11 05:23:43;;;;;;;;;4.67;4.67;;;;;;;;5079124;27;46230;-83
2023/12/11 05:26:08;;;;;;;;;5.33;4.00;;;;;;;;5078804;28;45445;-82
2023/12/11 05:28:33;;;;;;;;;3.00;3.00;;;;;;;;5082997;28;45354;-83
2023/12/11 05:30:58;;;;;;;;;6.00;4.67;;;;;;;;5081280;28;46379;-83
2023/12/11 05:33:24;;;;;;;;;5.33;5.00;;;;;;;;5082393;28;45436;-84
2023/12/11 05:35:49;;;;;;;;;3.00;3.00;;;;;;;;5081016;28;45387;-83
2023/12/11 05:38:14;;;;;;;;;4.67;4.67;;;;;;;;5081193;28;45363;-83
2023/12/11 05:40:39;;;;;;;;;8.33;4.00;;;;;;;;5082594;28;45432;-84
2023/12/11 05:43:05;;;;;;;;;4.00;4.00;;;;;;;;5080991;28;47227;-83
2023/12/11 05:45:30;;;;;;;;;5.33;4.67;;;;;;;;5082498;28;45248;-82
2023/12/11 05:47:55;;;;;;;;;6.33;5.00;;;;;;;;5064428;28;45268;-84
2023/12/11 05:50:20;;;;;;;;;4.67;4.33;;;;;;;;5081821;28;45203;-82
2023/12/11 05:52:45;;;;;;;;;5.00;4.00;;;;;;;;5081023;28;46946;-84
2023/12/11 05:55:11;;;;;;;;;5.00;5.00;;;;;;;;5081072;28;45903;-84
2023/12/11 05:57:36;;;;;;;;;5.00;2.33;;;;;;;;5087709;27;45504;-83
2023/12/11 06:00:02;;;;;;;;;4.00;4.00;;;;;;;;5082268;27;45496;-84
2023/12/11 06:02:28;;;;;;;;;5.00;4.00;;;;;;;;5082127;27;45409;-83
2023/12/11 06:04:53;;;;;;;;;6.33;4.33;;;;;;;;5097645;27;45273;-83
2023/12/11 06:07:18;;;;;;;;;6.33;5.33;;;;;;;;5098057;27;45604;-82
2023/12/11 06:09:43;;;;;;;;;4.00;4.00;;;;;;;;5082229;27;45416;-82
2023/12/11 06:12:09;;;;;;;;;4.33;4.33;;;;;;;;5081021;27;45499;-85
2023/12/11 06:14:35;;;;;;;;;3.67;3.67;;;;;;;;5081043;27;45580;-83
2023/12/11 06:17:00;;;;;;;;;4.00;4.00;;;;;;;;5097397;27;45516;-83
2023/12/11 06:19:26;;;;;;;;;6.67;4.00;;;;;;;;5081707;27;45388;-84
2023/12/11 06:21:51;;;;;;;;;6.00;4.00;;;;;;;;5081989;27;45569;-83
2023/12/11 06:24:16;;;;;;;;;7.67;5.33;;;;;;;;5081865;27;45365;-83
2023/12/11 06:26:42;;;;;;;;;7.00;6.00;;;;;;;;5081996;27;45409;-84
2023/12/11 06:29:08;;;;;;;;;6.00;4.33;;;;;;;;5081699;28;45459;-82
2023/12/11 06:31:33;;;;;;;;;3.67;3.33;;;;;;;;5080390;28;45644;-83
2023/12/11 06:33:59;;;;;;;;;4.00;4.00;;;;;;;;5085646;27;45345;-82
2023/12/11 06:36:25;;;;;;;;;9.33;6.00;;;;;;;;5086608;28;45565;-84
2023/12/11 06:38:51;;;;;;;;;2.33;2.33;;;;;;;;5082713;28;46057;-82
2023/12/11 06:41:17;;;;;;;;;11.00;7.33;;;;;;;;5081443;28;48392;-83
2023/12/11 06:43:43;;;;;;;;;5.00;5.00;;;;;;;;5066733;28;45281;-84
2023/12/11 06:46:08;;;;;;;;;3.67;3.67;;;;;;;;5083831;28;45225;-82
2023/12/11 06:48:33;;;;;;;;;5.00;5.00;;;;;;;;5082705;28;46213;-82
2023/12/11 06:50:58;;;;;;;;;6.33;6.00;;;;;;;;5081610;28;47281;-82
2023/12/11 06:53:23;;;;;;;;;6.67;6.67;;;;;;;;5083172;28;45145;-83
2023/12/11 06:55:49;;;;;;;;;6.33;6.33;;;;;;;;5082813;28;45563;-82
2023/12/11 06:58:14;;;;;;;;;6.00;6.00;;;;;;;;5082899;28;45158;-82
2023/12/11 07:00:39;;;;;;;;;7.67;5.33;;;;;;;;5081769;27;45246;-82
2023/12/11 07:03:05;;;;;;;;;10.00;7.33;;;;;;;;5097724;27;46141;-83
2023/12/11 07:05:30;;;;;;;;;8.67;6.00;;;;;;;;5097679;27;45400;-82
2023/12/11 07:07:56;;;;;;;;;7.00;6.00;;;;;;;;5098109;27;46794;-82
2023/12/11 07:10:21;;;;;;;;;8.67;4.00;;;;;;;;5082400;28;45961;-83
2023/12/11 07:12:47;;;;;;;;;5.33;5.33;;;;;;;;5082475;27;45510;-82
2023/12/11 07:15:12;;;;;;;;;7.67;4.00;;;;;;;;5083810;27;45308;-82
2023/12/11 07:17:37;;;;;;;;;8.00;8.00;;;;;;;;5082298;28;45298;-82
2023/12/11 07:20:03;;;;;;;;;6.00;3.00;;;;;;;;5097977;27;48301;-83
2023/12/11 07:22:30;;;;;;;;;10.00;8.00;;;;;;;;5096738;27;45290;-81
2023/12/11 07:24:55;;;;;;;;;7.33;6.67;;;;;;;;5080533;28;45493;-81
2023/12/11 07:27:21;;;;;;;;;8.00;5.00;;;;;;;;5082034;28;45432;-82
2023/12/11 07:29:46;;;;;;;;;6.00;4.00;;;;;;;;5080121;28;46678;-81
2023/12/11 07:32:11;;;;;;;;;5.67;5.67;;;;;;;;5078984;28;45954;-81
2023/12/11 07:34:37;;;;;;;;;5.33;4.00;;;;;;;;5080033;28;46031;-82
2023/12/11 07:37:02;;;;;;;;;6.50;6.50;;;;;;;;5078745;28;46819;-81
2023/12/11 07:39:27;;;;;;;;;7.00;5.33;;;;;;;;5080706;28;45494;-83
2023/12/11 07:41:54;;;;;;;;;7.00;6.67;;;;;;;;5082996;28;45444;-82
2023/12/11 07:44:19;;;;;;;;;6.00;3.00;;;;;;;;5079767;28;45351;-83
2023/12/11 07:46:44;;;;;;;;;7.00;5.33;;;;;;;;5079103;28;46227;-82
2023/12/11 07:49:13;;;;;;;;;7.67;7.00;;;;;;;;5078099;28;48428;-83
2023/12/11 07:51:38;;;;;;;;;8.33;8.33;;;;;;;;5080401;28;45373;-84
2023/12/11 07:54:04;;;;;;;;;7.00;7.00;;;;;;;;5080718;28;45417;-84
2023/12/11 07:56:29;;;;;;;;;7.00;7.00;;;;;;;;5076563;28;45890;-84
2023/12/11 07:58:55;;;;;;;;;9.00;7.00;;;;;;;;5067068;27;48327;-82
2023/12/11 08:01:20;;;;;;;;;9.00;6.00;;;;;;;;5061922;28;45551;-84
2023/12/11 08:03:45;;;;;;;;;9.33;8.00;;;;;;;;5062977;28;45568;-85
2023/12/11 08:06:10;;;;;;;;;12.67;7.33;;;;;;;;5062108;28;45896;-81
2023/12/11 08:08:45;;;;;;;;;6.00;6.00;;;;;;;;5078404;28;47234;-84
2023/12/11 08:11:29;;;;;;;;;7.33;6.67;;;;;;;;5063858;28;45355;-83
2023/12/11 08:13:54;;;;;;;;;5.33;4.67;;;;;;;;5063372;28;44792;-82
2023/12/11 08:16:20;;;;;;;;;7.67;6.33;;;;;;;;5062308;28;46763;-82
2023/12/11 08:18:45;;;;;;;;;10.67;6.00;;;;;;;;5080585;28;46358;-83
2023/12/11 08:21:11;;;;;;;;;7.00;6.33;;;;;;;;5061933;28;45319;-82
2023/12/11 08:23:39;;;;;;;;;6.00;6.00;;;;;;;;5061606;28;45343;-82
2023/12/11 08:26:05;;;;;;;;;10.67;7.67;;;;;;;;5061696;28;47120;-82
2023/12/11 08:28:30;;;;;;;;;10.00;7.67;;;;;;;;5078344;28;46225;-82
2023/12/11 08:30:56;;;;;;;;;6.67;5.33;;;;;;;;5060531;28;45394;-82
2023/12/11 08:33:21;;;;;;;;;7.67;5.67;;;;;;;;5062644;28;45258;-81
2023/12/11 08:35:46;;;;;;;;;8.00;8.00;;;;;;;;5079474;28;45392;-79
2023/12/11 08:38:13;;;;;;;;;8.33;7.67;;;;;;;;5079590;28;46360;-77
2023/12/11 08:40:38;;;;;;;;;5.00;5.00;;;;;;;;5079797;28;45357;-78
2023/12/11 08:43:04;;;;;;;;;7.00;5.00;;;;;;;;5079114;28;45287;-79
2023/12/11 08:45:29;;;;;;;;;7.33;6.00;;;;;;;;5080367;28;45479;-78
2023/12/11 08:47:54;;;;;;;;;5.75;4.25;;;;;;;;5080426;28;46310;-78
2023/12/11 08:50:20;;;;;;;;;5.00;4.67;;;;;;;;5079425;28;45664;-79
2023/12/11 08:52:45;;;;;;;;;5.00;5.00;;;;;;;;5080964;28;45314;-79
2023/12/11 08:55:10;;;;;;;;;4.00;4.00;;;;;;;;5081541;28;45303;-79
2023/12/11 08:57:35;;;;;;;;;3.67;3.00;;;;;;;;5097430;27;45311;-79
2023/12/11 09:00:01;;;;;;;;;6.00;4.33;;;;;;;;5078664;27;45834;-77
2023/12/11 09:02:26;;;;;;;;;5.33;4.33;;;;;;;;5082551;28;45735;-78
2023/12/11 09:04:51;;;;;;;;;4.00;3.00;;;;;;;;5063987;28;46012;-77
2023/12/11 09:07:16;;;;;;;;;5.67;5.00;;;;;;;;5082215;28;45937;-79
2023/12/11 09:09:41;;;;;;;;;8.67;6.33;;;;;;;;5081916;28;45354;-77
2023/12/11 09:12:07;;;;;;;;;5.00;3.00;;;;;;;;5080842;28;45313;-78
2023/12/11 09:14:33;;;;;;;;;6.33;6.33;;;;;;;;5082105;28;45294;-78
2023/12/11 09:16:58;;;;;;;;;7.33;6.00;;;;;;;;5080914;28;47161;-79
2023/12/11 09:19:23;;;;;;;;;2.00;1.00;;;;;;;;5081666;28;45266;-80
2023/12/11 09:21:49;;;;;;;;;6.00;5.00;;;;;;;;5080393;28;45319;-78
2023/12/11 09:24:14;;;;;;;;;5.00;3.00;;;;;;;;5080508;28;46876;-78
2023/12/11 09:26:39;;;;;;;;;5.00;5.00;;;;;;;;5081559;28;46303;-79
2023/12/11 09:29:04;;;;;;;;;7.33;5.33;;;;;;;;5082287;28;45405;-79
2023/12/11 09:31:30;;;;;;;;;7.00;5.00;;;;;;;;5081903;28;45335;-80
2023/12/11 09:33:55;;;;;;;;;3.67;3.67;;;;;;;;5082043;28;45694;-79
2023/12/11 09:36:20;;;;;;;;;4.00;4.00;;;;;;;;5063435;28;48285;-79
2023/12/11 09:38:45;;;;;;;;;6.00;3.67;;;;;;;;5081870;28;45398;-79
2023/12/11 09:41:11;;;;;;;;;9.33;6.00;;;;;;;;5081499;28;45319;-80
2023/12/11 09:43:36;;;;;;;;;4.33;4.00;;;;;;;;5081232;28;45702;-78
2023/12/11 09:46:06;;;;;;;;;5.67;4.33;;;;;;;;5081219;28;45346;-79
2023/12/11 09:48:31;;;;;;;;;9.00;5.67;;;;;;;;5079282;28;45625;-78
2023/12/11 09:50:56;;;;;;;;;8.00;6.00;;;;;;;;5079787;28;45244;-77
2023/12/11 09:53:21;;;;;;;;;5.33;5.33;;;;;;;;5081758;28;45296;-79
2023/12/11 09:55:48;;;;;;;;;9.00;6.67;;;;;;;;5080733;28;47210;-78
2023/12/11 09:58:14;;;;;;;;;4.33;4.33;;;;;;;;5075460;28;45395;-78
2023/12/11 10:00:40;;;;;;;;;6.00;4.00;;;;;;;;5076595;27;45469;-77
2023/12/11 10:03:05;;;;;;;;;7.00;6.33;;;;;;;;5069188;28;46080;-77
2023/12/11 10:05:33;;;;;;;;;4.33;3.00;;;;;;;;5080145;28;45303;-79
2023/12/11 10:07:59;;;;;;;;;8.00;4.67;;;;;;;;5060304;28;45702;-78
2023/12/11 10:10:30;;;;;;;;;7.00;5.67;;;;;;;;5062603;28;45495;-78
2023/12/11 10:12:55;;;;;;;;;6.00;5.33;;;;;;;;5079693;28;45994;-77
2023/12/11 10:15:22;;;;;;;;;7.00;5.67;;;;;;;;5076783;28;46207;-78
2023/12/11 10:17:58;;;;;;;;;8.33;7.00;;;;;;;;5060842;28;45981;-79
2023/12/11 10:20:24;;;;;;;;;7.33;7.33;;;;;;;;5061170;28;45403;-78
2023/12/11 10:22:49;;;;;;;;;6.33;4.67;;;;;;;;5072467;28;45541;-78
2023/12/11 10:25:22;;;;;;;;;9.33;8.00;;;;;;;;5080390;28;46336;-79
2023/12/11 10:27:47;;;;;;;;;8.00;6.00;;;;;;;;5081180;28;45516;-82
2023/12/11 10:30:14;;;;;;;;;7.00;6.33;;;;;;;;5080466;28;45719;-80
2023/12/11 10:32:39;;;;;;;;;6.33;6.00;;;;;;;;5079568;28;45398;-79
2023/12/11 10:35:05;;;;;;;;;10.33;9.00;;;;;;;;5062182;28;46976;-80
2023/12/11 10:37:30;;;;;;;;;6.00;6.00;;;;;;;;5078913;28;45362;-81
2023/12/11 10:39:56;;;;;;;;;10.67;8.67;;;;;;;;5076639;28;45203;-82
2023/12/11 10:42:22;;;;;;;;;10.67;10.67;;;;;;;;5074439;28;45418;-81
2023/12/11 10:44:48;;;;;;;;;10.00;8.00;;;;;;;;5080487;28;45407;-79
2023/12/11 10:47:13;;;;;;;;;7.00;7.00;;;;;;;;5079470;28;45611;-80
2023/12/11 10:49:40;;;;;;;;;9.67;6.33;;;;;;;;5062150;28;45341;-79
2023/12/11 10:52:05;;;;;;;;;4.67;4.67;;;;;;;;5080535;28;45637;-80
2023/12/11 10:54:30;;;;;;;;;7.00;5.33;;;;;;;;5079467;28;47582;-80
2023/12/11 10:56:56;;;;;;;;;12.67;9.00;;;;;;;;5080030;28;45381;-80
2023/12/11 10:59:22;;;;;;;;;6.33;6.33;;;;;;;;5079682;27;45509;-79
2023/12/11 11:01:48;;;;;;;;;6.33;6.33;;;;;;;;5077096;28;45533;-78
2023/12/11 11:04:14;;;;;;;;;7.33;5.67;;;;;;;;5059552;28;46962;-79
2023/12/11 11:07:02;;;;;;;;;9.33;8.33;;;;;;;;5078505;28;45403;-79
2023/12/11 11:09:43;;;;;;;;;8.00;6.67;;;;;;;;5049523;28;45379;-78
2023/12/11 11:12:17;;;;;;;;;9.67;7.33;;;;;;;;5078561;28;45356;-79
2023/12/11 11:14:47;;;;;;;;;9.67;8.00;;;;;;;;5078298;28;46329;-78
2023/12/11 11:17:12;;;;;;;;;5.67;5.67;;;;;;;;5080849;28;45358;-77
2023/12/11 11:19:58;;;;;;;;;6.33;4.33;;;;;;;;5080388;28;45354;-79
2023/12/11 11:22:23;;;;;;;;;8.33;6.33;;;;;;;;5079141;28;45498;-78
2023/12/11 11:24:48;;;;;;;;;7.33;5.33;;;;;;;;5079061;28;45169;-77
2023/12/11 11:27:40;;;;;;;;;6.33;5.33;;;;;;;;5061922;28;45915;-78
2023/12/11 11:30:07;;;;;;;;;7.67;6.00;;;;;;;;5055785;28;45784;-78
2023/12/11 11:32:54;;;;;;;;;7.33;7.33;;;;;;;;5076157;28;45471;-78
2023/12/11 11:35:45;;;;;;;;;8.33;6.33;;;;;;;;5079108;28;45334;-78
2023/12/11 11:38:14;;;;;;;;;5.00;4.00;;;;;;;;5055171;28;45469;-79
2023/12/11 11:40:39;;;;;;;;;7.67;7.00;;;;;;;;5061409;28;45434;-78
2023/12/11 11:43:07;;;;;;;;;14.67;10.33;;;;;;;;5080171;28;45477;-78
2023/12/11 11:45:33;;;;;;;;;9.00;8.00;;;;;;;;5061112;28;47818;-78
2023/12/11 11:47:58;;;;;;;;;11.33;8.33;;;;;;;;5080370;28;45385;-78
2023/12/11 11:50:23;;;;;;;;;4.33;4.33;;;;;;;;5079442;28;45340;-78
2023/12/11 11:52:52;;;;;;;;;6.33;5.00;;;;;;;;5079937;28;45702;-79
2023/12/11 11:55:21;;;;;;;;;9.67;8.00;;;;;;;;5079598;28;46314;-78
2023/12/11 11:57:46;;;;;;;;;9.67;8.00;;;;;;;;5079541;28;45512;-78
2023/12/11 12:00:11;;;;;;;;;8.67;7.00;;;;;;;;5061245;28;45460;-78
2023/12/11 12:02:37;;;;;;;;;13.00;8.00;;;;;;;;5080135;28;45340;-77
2023/12/11 12:05:08;;;;;;;;;6.00;5.67;;;;;;;;5079899;28;46104;-77
2023/12/11 12:07:35;;;;;;;;;5.00;4.67;;;;;;;;5079419;28;45243;-78
2023/12/11 12:10:00;;;;;;;;;2.50;2.50;;;;;;;;5080174;28;45165;-78
2023/12/11 12:12:28;;;;;;;;;4.67;4.00;;;;;;;;5079724;28;45208;-78
2023/12/11 12:15:04;;;;;;;;;4.33;4.00;;;;;;;;5078625;28;45495;-77
2023/12/11 12:17:29;;;;;;;;;5.67;5.67;;;;;;;;5079931;28;45387;-80
2023/12/11 12:19:54;;;;;;;;;6.00;5.00;;;;;;;;5078089;28;45399;-78
2023/12/11 12:22:19;;;;;;;;;3.00;3.00;;;;;;;;5078185;28;46532;-79
2023/12/11 12:24:48;;;;;;;;;5.00;3.33;;;;;;;;5060098;28;48361;-79
2023/12/11 12:27:15;;;;;;;;;2.50;2.00;;;;;;;;5078482;28;45423;-78
2023/12/11 12:29:40;;;;;;;;;4.00;3.25;;;;;;;;5079656;28;45369;-78
2023/12/11 12:32:08;;;;;;;;;6.00;5.33;;;;;;;;5077891;28;45861;-81
2023/12/11 12:34:35;;;;;;;;;41.33;34.67;;;;;;;;5078471;28;45318;-81
2023/12/11 12:37:01;;;;;;;;;12.00;8.00;;;;;;;;5056347;28;45348;-80
2023/12/11 12:39:26;;;;;;;;;6.67;6.00;;;;;;;;5060358;28;45391;-80
2023/12/11 12:41:52;;;;;;;;;7.67;6.00;;;;;;;;5078464;28;45535;-80
2023/12/11 12:44:20;;;;;;;;;9.00;7.00;;;;;;;;5058151;28;47149;-81
2023/12/11 12:46:46;;;;;;;;;6.33;4.67;;;;;;;;5076489;28;45407;-79
2023/12/11 12:49:12;;;;;;;;;7.75;2.75;;;;;;;;5077361;28;45502;-81
2023/12/11 12:51:48;;;;;;;;;5.33;3.67;;;;;;;;5061077;28;47468;-80
2023/12/11 12:54:17;;;;;;;;;6.00;5.00;;;;;;;;5079489;28;45350;-79
2023/12/11 12:56:44;;;;;;;;;4.67;3.00;;;;;;;;5079347;28;45371;-78
2023/12/11 12:59:09;;;;;;;;;4.00;3.50;;;;;;;;5079738;27;45331;-80
2023/12/11 13:01:38;;;;;;;;;6.33;5.33;;;;;;;;5079390;28;45300;-81
2023/12/11 13:04:04;;;;;;;;;5.33;5.00;;;;;;;;5079309;27;45972;-80
2023/12/11 13:06:29;;;;;;;;;4.00;4.00;;;;;;;;5078225;27;46281;-80
2023/12/11 13:08:54;;;;;;;;;8.00;6.00;;;;;;;;5078401;28;45741;-80
2023/12/11 13:11:19;;;;;;;;;5.00;4.67;;;;;;;;5078431;28;45629;-80
2023/12/11 13:13:57;;;;;;;;;4.67;4.00;;;;;;;;5079072;28;45357;-79
2023/12/11 13:16:22;;;;;;;;;8.00;6.00;;;;;;;;5077091;28;45310;-79
2023/12/11 13:18:51;;;;;;;;;4.67;3.00;;;;;;;;5060961;28;45361;-79
2023/12/11 13:21:16;;;;;;;;;6.00;4.33;;;;;;;;5079150;28;45330;-79
2023/12/11 13:23:41;;;;;;;;;6.33;4.67;;;;;;;;5079560;28;46681;-78
2023/12/11 13:26:07;;;;;;;;;7.75;3.00;;;;;;;;5061334;28;45390;-80
2023/12/11 13:28:32;;;;;;;;;6.00;4.67;;;;;;;;5079654;28;45428;-79
2023/12/11 13:30:57;;;;;;;;;4.00;4.00;;;;;;;;5079577;28;45322;-80
2023/12/11 13:33:22;;;;;;;;;4.67;3.00;;;;;;;;5079137;28;45465;-78
2023/12/11 13:35:50;;;;;;;;;4.67;4.00;;;;;;;;5079205;28;45302;-79
2023/12/11 13:38:15;;;;;;;;;3.00;3.00;;;;;;;;5077925;28;45381;-79
2023/12/11 13:40:40;;;;;;;;;5.00;4.00;;;;;;;;5079203;28;45277;-81
2023/12/11 13:43:05;;;;;;;;;5.33;4.00;;;;;;;;5079331;28;45428;-81
2023/12/11 13:45:30;;;;;;;;;7.67;6.00;;;;;;;;5079312;28;45239;-79
2023/12/11 13:47:55;;;;;;;;;9.00;9.00;;;;;;;;5081386;28;45226;-80
2023/12/11 13:50:21;;;;;;;;;3.33;2.33;;;;;;;;5064093;28;46837;-80
2023/12/11 13:52:46;;;;;;;;;6.00;5.00;;;;;;;;5082468;28;45212;-80
2023/12/11 13:55:11;;;;;;;;;6.00;5.00;;;;;;;;5082783;28;45281;-79
2023/12/11 13:57:37;;;;;;;;;8.00;4.67;;;;;;;;5088119;27;45248;-81
2023/12/11 14:00:02;;;;;;;;;12.00;6.67;;;;;;;;5082669;27;45255;-81
2023/12/11 14:02:28;;;;;;;;;5.00;3.33;;;;;;;;5082523;27;46402;-81
2023/12/11 14:04:53;;;;;;;;;5.67;4.33;;;;;;;;5082285;27;45278;-79
2023/12/11 14:07:18;;;;;;;;;4.50;4.50;;;;;;;;5082634;27;45565;-79
2023/12/11 14:09:43;;;;;;;;;6.00;5.00;;;;;;;;5082426;27;45491;-80
2023/12/11 14:12:08;;;;;;;;;6.67;5.00;;;;;;;;5087288;27;46744;-80
2023/12/11 14:14:35;;;;;;;;;6.33;6.00;;;;;;;;5082032;28;45533;-80
2023/12/11 14:17:00;;;;;;;;;8.33;7.33;;;;;;;;5082321;28;45474;-79
2023/12/11 14:19:25;;;;;;;;;4.67;2.33;;;;;;;;5081672;28;45348;-80
2023/12/11 14:21:52;;;;;;;;;7.67;5.33;;;;;;;;5081205;28;45449;-81
2023/12/11 14:24:17;;;;;;;;;5.33;4.67;;;;;;;;5081981;28;45376;-77
2023/12/11 14:26:43;;;;;;;;;7.33;6.00;;;;;;;;5081372;28;45560;-78
2023/12/11 14:29:08;;;;;;;;;5.00;3.00;;;;;;;;5079308;27;45629;-78
2023/12/11 14:31:33;;;;;;;;;5.67;3.00;;;;;;;;5060446;28;45482;-78
2023/12/11 14:33:58;;;;;;;;;6.25;6.25;;;;;;;;5051857;28;45291;-78
2023/12/11 14:36:23;;;;;;;;;8.33;5.00;;;;;;;;5079077;28;45516;-79